createdAt,value
2022-08-25T00:02:00.177Z,102386.84
2022-08-25T00:04:30.244Z,102374.91
2022-08-25T00:07:02.659Z,102372.81
2022-08-25T00:09:31.986Z,102381.28
2022-08-25T00:12:01.275Z,102368.38
2022-08-25T00:14:33.546Z,102373.13
2022-08-25T00:17:01.938Z,102384.88
2022-08-25T00:19:33.634Z,102390.41
2022-08-25T00:22:02.251Z,102390.06
2022-08-25T00:24:30.694Z,102409.88
2022-08-25T00:27:01.763Z,102408.03
2022-08-25T00:29:30.717Z,102415.88
2022-08-25T00:31:59.412Z,102419.78
2022-08-25T00:34:30.342Z,102414.41
2022-08-25T00:36:58.492Z,102412.09
2022-08-25T00:39:27.604Z,102402.31
2022-08-25T00:41:57.821Z,102404.19
2022-08-25T00:44:30.129Z,102400.84
2022-08-25T00:47:01.278Z,102396.53
2022-08-25T00:49:32.973Z,102364.34
2022-08-25T00:52:03.485Z,102352.09
2022-08-25T00:54:35.033Z,102351.34
2022-08-25T00:57:05.141Z,102356.31
2022-08-25T00:59:35.341Z,102353.78
2022-08-25T01:02:04.791Z,102357.00
2022-08-25T01:04:32.731Z,102356.88
2022-08-25T01:07:01.780Z,102358.75
2022-08-25T01:09:32.550Z,102362.00
2022-08-25T01:12:00.903Z,102369.59
2022-08-25T01:14:31.501Z,102372.13
2022-08-25T01:17:00.817Z,102371.47
2022-08-25T01:19:30.336Z,102397.41
2022-08-25T01:21:59.689Z,102399.84
2022-08-25T01:24:33.716Z,102415.03
2022-08-25T01:27:01.518Z,102430.41
2022-08-25T01:29:30.484Z,102423.53
2022-08-25T01:32:00.741Z,102431.09
2022-08-25T01:34:30.800Z,102422.84
2022-08-25T01:37:01.197Z,102431.56
2022-08-25T01:39:30.976Z,102434.78
2022-08-25T01:42:24.471Z,102418.69
2022-08-25T01:44:52.534Z,102409.13
2022-08-25T01:47:20.477Z,102391.41
2022-08-25T01:49:48.633Z,102395.63
2022-08-25T01:52:24.539Z,102384.69
2022-08-25T01:54:52.976Z,102384.59
2022-08-25T01:57:20.799Z,102411.03
2022-08-25T01:59:48.606Z,102427.16
2022-08-25T02:02:18.352Z,102433.75
2022-08-25T02:04:46.349Z,102450.22
2022-08-25T02:07:14.534Z,102444.91
2022-08-25T02:09:44.283Z,102438.59
2022-08-25T02:12:12.221Z,102429.47
2022-08-25T02:14:40.056Z,102424.38
2022-08-25T02:17:09.769Z,102413.09
2022-08-25T02:19:37.753Z,102421.22
2022-08-25T02:22:05.896Z,102424.16
2022-08-25T02:24:34.965Z,102438.19
2022-08-25T02:27:04.257Z,102431.81
2022-08-25T02:29:32.165Z,102419.81
2022-08-25T02:32:00.011Z,102421.50
2022-08-25T02:34:28.085Z,102431.25
2022-08-25T02:36:55.883Z,102422.31
2022-08-25T02:39:23.754Z,102427.38
2022-08-25T02:41:51.513Z,102432.81
2022-08-25T02:44:20.869Z,102431.03
2022-08-25T02:46:48.925Z,102443.66
2022-08-25T02:49:16.787Z,102449.03
2022-08-25T02:51:44.678Z,102437.88
2022-08-25T02:54:12.497Z,102438.09
2022-08-25T02:56:41.202Z,102437.25
2022-08-25T02:59:09.013Z,102438.09
2022-08-25T03:01:38.235Z,102434.50
2022-08-25T03:04:07.182Z,102433.19
2022-08-25T03:06:35.216Z,102435.88
2022-08-25T03:09:03.061Z,102437.72
2022-08-25T03:11:31.806Z,102446.31
2022-08-25T03:13:59.599Z,102444.31
2022-08-25T03:16:28.256Z,102447.06
2022-08-25T03:18:59.431Z,102424.25
2022-08-25T03:21:29.696Z,102409.31
2022-08-25T03:23:58.249Z,102394.84
2022-08-25T03:26:43.945Z,102383.38
2022-08-25T03:29:13.624Z,102396.25
2022-08-25T03:31:43.878Z,102368.91
2022-08-25T03:34:13.661Z,102380.06
2022-08-25T03:36:41.461Z,102401.00
2022-08-25T03:39:09.509Z,102424.66
2022-08-25T03:41:37.536Z,102432.88
2022-08-25T03:44:07.448Z,102439.19
2022-08-25T03:46:38.911Z,102453.25
2022-08-25T03:49:09.435Z,102456.72
2022-08-25T03:51:41.461Z,102452.25
2022-08-25T03:54:11.415Z,102447.75
2022-08-25T03:56:39.825Z,102441.19
2022-08-25T03:59:10.091Z,102443.28
2022-08-25T04:01:38.309Z,102439.25
2022-08-25T04:04:07.593Z,102424.09
2022-08-25T04:06:35.775Z,102412.66
2022-08-25T04:09:05.351Z,102409.16
2022-08-25T04:11:33.233Z,102382.56
2022-08-25T04:14:02.374Z,102383.69
2022-08-25T04:16:32.606Z,102387.56
2022-08-25T04:19:02.512Z,102377.31
2022-08-25T04:21:31.041Z,102388.22
2022-08-25T04:23:58.934Z,102405.19
2022-08-25T04:26:33.659Z,102409.56
2022-08-25T04:29:03.561Z,102403.38
2022-08-25T04:31:32.951Z,102404.97
2022-08-25T04:34:04.438Z,102411.81
2022-08-25T04:36:45.338Z,102408.63
2022-08-25T04:39:21.638Z,102406.09
2022-08-25T04:41:52.188Z,102403.88
2022-08-25T04:44:20.210Z,102402.13
2022-08-25T04:46:49.205Z,102409.16
2022-08-25T04:49:17.142Z,102409.47
2022-08-25T04:51:45.924Z,102401.44
2022-08-25T04:54:16.859Z,102398.00
2022-08-25T04:56:45.536Z,102421.69
2022-08-25T04:59:17.143Z,102419.22
2022-08-25T05:01:46.911Z,102429.91
2022-08-25T05:04:28.195Z,102422.94
2022-08-25T05:06:56.547Z,102423.56
2022-08-25T05:09:25.112Z,102424.03
2022-08-25T05:11:53.460Z,102421.84
2022-08-25T05:14:26.495Z,102456.09
2022-08-25T05:16:55.221Z,102461.66
2022-08-25T05:19:23.911Z,102461.34
2022-08-25T05:21:51.813Z,102461.38
2022-08-25T05:24:20.500Z,102455.38
2022-08-25T05:26:48.472Z,102449.59
2022-08-25T05:29:16.469Z,102461.19
2022-08-25T05:31:50.061Z,102456.16
2022-08-25T05:34:19.483Z,102459.44
2022-08-25T05:36:47.913Z,102464.47
2022-08-25T05:39:15.964Z,102470.69
2022-08-25T05:41:43.808Z,102465.00
2022-08-25T05:44:12.678Z,102460.78
2022-08-25T05:46:40.485Z,102455.56
2022-08-25T05:49:10.132Z,102451.34
2022-08-25T05:51:37.927Z,102456.41
2022-08-25T05:54:06.067Z,102453.69
2022-08-25T05:56:33.833Z,102445.28
2022-08-25T05:59:04.980Z,102446.47
2022-08-25T06:01:52.604Z,102441.59
2022-08-25T06:04:22.615Z,102442.91
2022-08-25T06:06:53.464Z,102447.47
2022-08-25T06:09:21.566Z,102429.63
2022-08-25T06:11:54.519Z,102411.84
2022-08-25T06:14:23.350Z,102397.69
2022-08-25T06:16:51.645Z,102401.34
2022-08-25T06:19:21.783Z,102412.13
2022-08-25T06:21:50.331Z,102420.78
2022-08-25T06:24:18.164Z,102401.41
2022-08-25T06:26:46.219Z,102404.47
2022-08-25T06:29:15.027Z,102409.25
2022-08-25T06:31:44.211Z,102404.84
2022-08-25T06:34:12.806Z,102412.56
2022-08-25T06:36:42.015Z,102412.19
2022-08-25T06:39:10.581Z,102411.63
2022-08-25T06:41:38.964Z,102410.34
2022-08-25T06:44:06.978Z,102416.34
2022-08-25T06:46:36.209Z,102411.25
2022-08-25T06:49:05.505Z,102417.84
2022-08-25T06:51:35.657Z,102425.41
2022-08-25T06:54:05.879Z,102430.63
2022-08-25T06:56:34.056Z,102426.31
2022-08-25T06:59:02.254Z,102414.31
2022-08-25T07:01:31.963Z,102423.72
2022-08-25T07:04:02.105Z,102418.09
2022-08-25T07:06:32.735Z,102423.31
2022-08-25T07:09:00.972Z,102406.69
2022-08-25T07:11:34.178Z,102418.91
2022-08-25T07:14:03.062Z,102416.38
2022-08-25T07:16:31.506Z,102413.34
2022-08-25T07:19:00.182Z,102405.31
2022-08-25T07:21:33.359Z,102419.59
2022-08-25T07:24:05.775Z,102409.53
2022-08-25T07:26:38.437Z,102408.41
2022-08-25T07:29:10.232Z,102401.22
2022-08-25T07:31:38.153Z,102406.69
2022-08-25T07:34:23.743Z,102402.91
2022-08-25T07:36:53.548Z,102401.47
2022-08-25T07:39:22.098Z,102397.78
2022-08-25T07:41:52.518Z,102393.09
2022-08-25T07:44:22.002Z,102390.94
2022-08-25T07:46:50.483Z,102391.06
2022-08-25T07:49:23.252Z,102369.72
2022-08-25T07:52:03.203Z,102367.91
2022-08-25T07:54:34.598Z,102338.72
2022-08-25T07:57:04.846Z,102330.13
2022-08-25T07:59:39.031Z,102322.47
2022-08-25T08:02:09.003Z,102324.41
2022-08-25T08:04:48.355Z,102315.47
2022-08-25T08:07:18.066Z,102312.78
2022-08-25T08:09:45.903Z,102294.16
2022-08-25T08:12:15.401Z,102283.53
2022-08-25T08:14:45.015Z,102267.91
2022-08-25T08:17:14.703Z,102253.81
2022-08-25T08:19:45.274Z,102232.09
2022-08-25T08:22:16.062Z,102219.25
2022-08-25T08:24:54.202Z,102212.63
2022-08-25T08:27:25.770Z,102197.78
2022-08-25T08:29:53.739Z,102179.41
2022-08-25T08:32:25.173Z,102175.56
2022-08-25T08:34:59.438Z,102143.00
2022-08-25T08:37:28.069Z,102150.63
2022-08-25T08:39:56.119Z,102160.44
2022-08-25T08:42:42.975Z,102137.97
2022-08-25T08:45:35.621Z,102088.06
2022-08-25T08:48:39.718Z,102057.59
2022-08-25T08:51:20.555Z,102034.09
2022-08-25T08:53:57.395Z,101986.34
2022-08-25T08:56:30.808Z,101964.53
2022-08-25T08:59:06.170Z,101969.28
2022-08-25T09:01:36.667Z,101940.63
2022-08-25T09:04:10.837Z,101905.06
2022-08-25T09:06:44.315Z,101882.34
2022-08-25T09:09:15.460Z,101861.03
2022-08-25T09:11:59.238Z,101854.78
2022-08-25T09:14:53.940Z,101835.53
2022-08-25T09:17:34.570Z,101836.06
2022-08-25T09:20:19.061Z,101838.25
2022-08-25T09:23:01.083Z,101843.41
2022-08-25T09:25:54.399Z,101822.25
2022-08-25T09:28:31.025Z,101774.38
2022-08-25T09:31:03.021Z,101777.91
2022-08-25T09:33:33.528Z,101792.75
2022-08-25T09:36:04.550Z,101768.53
2022-08-25T09:38:34.129Z,101726.00
2022-08-25T09:41:03.308Z,101723.06
2022-08-25T09:43:34.185Z,101729.47
2022-08-25T09:46:10.607Z,101708.25
2022-08-25T09:48:46.395Z,101664.41
2022-08-25T09:51:24.991Z,101663.50
2022-08-25T09:53:55.985Z,101542.63
2022-08-25T09:56:26.087Z,101594.25
2022-08-25T09:58:55.351Z,101579.78
2022-08-25T10:01:25.292Z,101582.13
2022-08-25T10:04:00.580Z,101589.19
2022-08-25T10:06:31.535Z,101616.44
2022-08-25T10:09:01.942Z,101624.47
2022-08-25T10:11:40.675Z,101663.09
2022-08-25T10:14:19.866Z,101713.34
2022-08-25T10:16:50.895Z,101706.88
2022-08-25T10:19:27.720Z,101716.72
2022-08-25T10:22:08.156Z,101763.66
2022-08-25T10:24:44.183Z,101764.69
2022-08-25T10:27:23.442Z,101724.75
2022-08-25T10:30:04.955Z,101785.94
2022-08-25T10:32:50.334Z,101804.41
2022-08-25T10:35:21.366Z,101816.00
2022-08-25T10:38:05.080Z,101839.66
2022-08-25T10:40:41.981Z,101854.16
2022-08-25T10:43:28.077Z,101865.94
2022-08-25T10:46:06.420Z,101858.75
2022-08-25T10:48:54.849Z,101822.28
2022-08-25T10:51:33.944Z,101860.13
2022-08-25T10:54:08.730Z,101878.31
2022-08-25T10:56:41.402Z,101885.69
2022-08-25T10:59:31.687Z,101897.22
2022-08-25T11:02:16.450Z,101894.50
2022-08-25T11:04:54.807Z,101887.66
2022-08-25T11:07:29.527Z,101886.63
2022-08-25T11:10:04.221Z,101871.97
2022-08-25T11:12:35.867Z,101867.19
2022-08-25T11:15:10.538Z,101871.41
2022-08-25T11:17:44.137Z,101867.91
2022-08-25T11:20:26.524Z,101855.78
2022-08-25T11:23:06.304Z,101860.41
2022-08-25T11:25:39.254Z,101850.78
2022-08-25T11:28:14.101Z,101846.94
2022-08-25T11:30:43.088Z,101833.84
2022-08-25T11:33:14.165Z,101825.69
2022-08-25T11:35:45.471Z,101813.75
2022-08-25T11:38:35.076Z,101815.00
2022-08-25T11:41:15.295Z,101806.28
2022-08-25T11:44:09.643Z,101806.00
2022-08-25T11:46:49.480Z,101801.75
2022-08-25T11:49:37.446Z,101799.34
2022-08-25T11:52:49.318Z,101794.53
2022-08-25T11:55:23.390Z,101780.34
2022-08-25T11:57:54.068Z,101800.44
2022-08-25T12:00:39.889Z,101804.34
2022-08-25T12:03:48.545Z,101805.78
2022-08-25T12:06:31.604Z,101801.59
2022-08-25T12:09:21.636Z,101810.72
2022-08-25T12:11:54.660Z,101825.13
2022-08-25T12:14:47.946Z,101814.22
2022-08-25T12:17:22.722Z,101827.72
2022-08-25T12:19:56.996Z,101835.94
2022-08-25T12:22:55.271Z,101851.56
2022-08-25T12:25:38.605Z,101852.94
2022-08-25T12:28:19.490Z,101838.66
2022-08-25T12:30:54.867Z,101840.41
2022-08-25T12:33:40.458Z,101835.59
2022-08-25T12:36:11.430Z,101835.66
2022-08-25T12:38:50.878Z,101825.78
2022-08-25T12:41:24.337Z,101817.81
2022-08-25T12:43:54.414Z,101809.72
2022-08-25T12:46:37.929Z,101792.50
2022-08-25T12:49:29.780Z,101805.13
2022-08-25T12:52:01.125Z,101815.41
2022-08-25T12:54:43.505Z,101807.53
2022-08-25T12:57:37.937Z,101822.06
2022-08-25T13:00:18.266Z,101819.03
2022-08-25T13:06:28.097Z,101820.00
2022-08-25T13:09:23.085Z,101818.22
2022-08-25T13:11:59.163Z,101811.00
2022-08-25T13:14:38.932Z,101809.31
2022-08-25T13:17:07.391Z,101805.16
2022-08-25T13:19:38.748Z,101797.44
2022-08-25T13:22:16.353Z,101781.91
2022-08-25T13:24:47.624Z,101766.75
2022-08-25T13:27:23.167Z,101776.34
2022-08-25T13:29:56.006Z,101798.28
2022-08-25T13:32:31.974Z,101793.56
2022-08-25T13:35:14.116Z,101784.28
2022-08-25T13:37:42.236Z,101770.59
2022-08-25T13:40:17.789Z,101754.09
2022-08-25T13:42:55.481Z,101781.00
2022-08-25T13:45:28.863Z,101787.09
2022-08-25T13:48:00.464Z,101779.97
2022-08-25T13:50:34.434Z,101785.53
2022-08-25T13:53:05.348Z,101778.22
2022-08-25T13:55:38.228Z,101759.94
2022-08-25T13:58:24.862Z,101731.50
2022-08-25T14:01:19.926Z,101706.03
2022-08-25T14:04:19.902Z,101716.13
2022-08-25T14:06:48.243Z,101732.31
2022-08-25T14:09:18.567Z,101722.81
2022-08-25T14:11:59.402Z,101720.97
2022-08-25T14:14:34.973Z,101739.94
2022-08-25T14:17:21.967Z,101753.88
2022-08-25T14:19:56.291Z,101741.38
2022-08-25T14:22:24.194Z,101730.94
2022-08-25T14:24:54.920Z,101725.72
2022-08-25T14:27:22.912Z,101730.53
2022-08-25T14:29:52.845Z,101724.81
2022-08-25T14:32:22.749Z,101694.47
2022-08-25T14:34:50.566Z,101687.09
2022-08-25T14:37:20.661Z,101704.50
2022-08-25T14:39:54.615Z,101701.59
2022-08-25T14:42:22.850Z,101713.31
2022-08-25T14:44:54.000Z,101696.09
2022-08-25T14:47:25.611Z,101706.59
2022-08-25T14:49:53.504Z,101682.81
2022-08-25T14:52:26.646Z,101659.66
2022-08-25T14:54:54.693Z,101696.44
2022-08-25T14:57:22.610Z,101668.13
2022-08-25T14:59:51.878Z,101673.09
2022-08-25T15:02:23.008Z,101678.56
2022-08-25T15:05:05.779Z,101704.06
2022-08-25T15:07:51.883Z,101707.63
2022-08-25T15:10:21.824Z,101710.63
2022-08-25T15:12:51.144Z,101701.59
2022-08-25T15:15:22.101Z,101698.72
2022-08-25T15:17:50.728Z,101688.03
2022-08-25T15:20:20.196Z,101684.44
2022-08-25T15:22:48.584Z,101686.72
2022-08-25T15:25:16.939Z,101693.56
2022-08-25T15:27:46.025Z,101686.94
2022-08-25T15:30:14.932Z,101681.56
2022-08-25T15:32:43.136Z,101678.03
2022-08-25T15:35:11.699Z,101668.84
2022-08-25T15:37:44.577Z,101660.59
2022-08-25T15:40:12.967Z,101650.34
2022-08-25T15:42:42.981Z,101648.56
2022-08-25T15:45:23.061Z,101654.03
2022-08-25T15:47:54.694Z,101662.16
2022-08-25T15:50:33.169Z,101659.03
2022-08-25T15:53:02.812Z,101655.75
2022-08-25T15:55:31.574Z,101659.97
2022-08-25T15:58:01.178Z,101660.06
2022-08-25T16:00:29.008Z,101657.72
2022-08-25T16:02:59.654Z,101658.03
2022-08-25T16:05:27.444Z,101651.56
2022-08-25T16:07:57.932Z,101662.69
2022-08-25T16:10:28.209Z,101639.28
2022-08-25T16:12:55.995Z,101640.44
2022-08-25T16:15:28.813Z,101644.09
2022-08-25T16:17:58.946Z,101634.34
2022-08-25T16:20:26.907Z,101619.09
2022-08-25T16:22:54.919Z,101630.84
2022-08-25T16:25:23.757Z,101610.53
2022-08-25T16:27:53.630Z,101614.09
2022-08-25T16:30:25.199Z,101591.66
2022-08-25T16:32:56.496Z,101609.75
2022-08-25T16:35:24.307Z,101594.38
2022-08-25T16:37:52.100Z,101591.47
2022-08-25T16:40:24.509Z,101566.63
2022-08-25T16:42:56.044Z,101571.88
2022-08-25T16:45:24.105Z,101581.81
2022-08-25T16:47:51.925Z,101570.00
2022-08-25T16:50:19.916Z,101582.78
2022-08-25T16:53:07.760Z,101575.59
2022-08-25T16:55:38.968Z,101554.78
2022-08-25T16:58:13.522Z,101523.94
2022-08-25T17:00:44.798Z,101526.81
2022-08-25T17:03:12.972Z,101497.16
2022-08-25T17:05:42.823Z,101479.50
2022-08-25T17:08:28.030Z,101450.97
2022-08-25T17:10:56.790Z,101448.50
2022-08-25T17:13:26.033Z,101421.63
2022-08-25T17:15:53.892Z,101394.84
2022-08-25T17:18:21.744Z,101401.59
2022-08-25T17:20:59.196Z,101384.94
2022-08-25T17:23:27.149Z,101390.59
2022-08-25T17:25:55.406Z,101418.53
2022-08-25T17:28:26.164Z,101399.81
2022-08-25T17:30:55.244Z,101338.38
2022-08-25T17:33:28.929Z,101336.03
2022-08-25T17:36:00.340Z,101327.41
2022-08-25T17:38:29.179Z,101282.41
2022-08-25T17:41:03.499Z,101292.69
2022-08-25T17:43:36.193Z,101271.13
2022-08-25T17:46:06.173Z,101266.53
2022-08-25T17:48:36.647Z,101259.56
2022-08-25T17:51:06.934Z,101241.84
2022-08-25T17:53:37.426Z,101220.84
2022-08-25T17:56:08.290Z,101218.75
2022-08-25T17:58:39.253Z,101221.56
2022-08-25T18:01:07.413Z,101222.09
2022-08-25T18:03:35.982Z,101216.84
2022-08-25T18:06:05.728Z,101220.53
2022-08-25T18:08:35.382Z,101225.84
2022-08-25T18:11:08.467Z,101244.38
2022-08-25T18:13:41.531Z,101279.78
2022-08-25T18:16:09.970Z,101280.44
2022-08-25T18:18:38.134Z,101277.00
2022-08-25T18:21:06.922Z,101277.88
2022-08-25T18:23:34.778Z,101289.16
2022-08-25T18:26:02.544Z,101311.97
2022-08-25T18:28:32.123Z,101338.66
2022-08-25T18:31:01.402Z,101362.56
2022-08-25T18:33:30.109Z,101396.69
2022-08-25T18:35:58.660Z,101426.84
2022-08-25T18:38:43.923Z,101469.03
2022-08-25T18:41:13.379Z,101423.28
2022-08-25T18:43:41.254Z,101435.13
2022-08-25T18:46:10.550Z,101486.28
2022-08-25T18:48:41.670Z,101553.75
2022-08-25T18:51:10.490Z,101613.34
2022-08-25T18:53:50.136Z,101636.00
2022-08-25T18:56:19.186Z,101657.25
2022-08-25T18:58:47.155Z,101664.41
2022-08-25T19:01:17.159Z,101677.81
2022-08-25T19:03:46.612Z,101698.31
2022-08-25T19:06:16.210Z,101698.94
2022-08-25T19:08:45.142Z,101719.97
2022-08-25T19:11:13.226Z,101759.88
2022-08-25T19:13:41.727Z,101768.22
2022-08-25T19:16:11.768Z,101790.94
2022-08-25T19:18:41.599Z,101804.09
2022-08-25T19:21:09.944Z,101816.81
2022-08-25T19:23:39.023Z,101815.22
2022-08-25T19:26:08.940Z,101827.25
2022-08-25T19:28:48.957Z,101827.66
2022-08-25T19:31:18.151Z,101859.47
2022-08-25T19:33:50.074Z,101867.69
2022-08-25T19:36:21.341Z,101873.00
2022-08-25T19:38:51.818Z,101880.91
2022-08-25T19:41:20.546Z,101892.50
2022-08-25T19:43:56.272Z,101891.50
2022-08-25T19:46:32.858Z,101891.56
2022-08-25T19:49:07.201Z,101891.94
2022-08-25T19:51:35.715Z,101887.91
2022-08-25T19:54:03.511Z,101903.78
2022-08-25T19:56:32.502Z,101896.47
2022-08-25T19:59:00.919Z,101901.75
2022-08-25T20:01:29.112Z,101899.53
2022-08-25T20:03:57.066Z,101897.38
2022-08-25T20:06:27.726Z,101891.97
2022-08-25T20:08:58.939Z,101903.41
2022-08-25T20:11:31.984Z,101906.81
2022-08-25T20:14:03.910Z,101903.34
2022-08-25T20:16:32.535Z,101906.44
2022-08-25T20:19:00.982Z,101909.31
2022-08-25T20:21:30.902Z,101902.03
2022-08-25T20:24:16.386Z,101910.75
2022-08-25T20:26:44.365Z,101914.72
2022-08-25T20:29:13.213Z,101917.47
2022-08-25T20:31:41.194Z,101921.19
2022-08-25T20:34:11.765Z,101913.88
2022-08-25T20:36:50.173Z,101917.06
2022-08-25T20:39:18.858Z,101917.03
2022-08-25T20:41:48.328Z,101920.75
2022-08-25T20:44:16.749Z,101924.47
2022-08-25T20:46:45.534Z,101923.94
2022-08-25T20:49:14.569Z,101917.16
2022-08-25T20:51:44.519Z,101917.03
2022-08-25T20:54:15.406Z,101924.47
2022-08-25T20:56:43.570Z,101918.03
2022-08-25T20:59:11.753Z,101921.44
2022-08-25T21:01:41.258Z,101918.13
2022-08-25T21:04:14.329Z,101918.19
2022-08-25T21:06:44.386Z,101929.16
2022-08-25T21:09:15.859Z,101909.97
2022-08-25T21:11:45.177Z,101918.16
2022-08-25T21:14:15.883Z,101902.63
2022-08-25T21:16:46.484Z,101900.50
2022-08-25T21:19:15.959Z,101910.16
2022-08-25T21:21:45.849Z,101907.84
2022-08-25T21:24:14.793Z,101910.44
2022-08-25T21:26:47.614Z,101899.47
2022-08-25T21:29:17.838Z,101900.00
2022-08-25T21:31:46.458Z,101904.41
2022-08-25T21:34:17.111Z,101899.84
2022-08-25T21:36:48.480Z,101898.63
2022-08-25T21:39:16.510Z,101905.31
2022-08-25T21:41:45.511Z,101910.84
2022-08-25T21:44:13.986Z,101900.41
2022-08-25T21:46:53.749Z,101898.28
2022-08-25T21:49:23.381Z,101900.13
2022-08-25T21:52:00.983Z,101899.47
2022-08-25T21:54:30.544Z,101892.16
2022-08-25T21:57:00.396Z,101889.66
2022-08-25T21:59:29.690Z,101890.00
2022-08-25T22:01:58.581Z,101892.81
2022-08-25T22:04:26.936Z,101900.72
2022-08-25T22:06:58.095Z,101902.56
2022-08-25T22:09:28.312Z,101906.00
2022-08-25T22:11:56.895Z,101894.03
2022-08-25T22:14:26.496Z,101896.72
2022-08-25T22:16:55.064Z,101893.03
2022-08-25T22:19:23.781Z,101895.72
2022-08-25T22:21:52.989Z,101889.31
2022-08-25T22:24:22.890Z,101888.56
2022-08-25T22:26:56.597Z,101893.50
2022-08-25T22:29:26.055Z,101888.63
2022-08-25T22:31:54.170Z,101895.72
2022-08-25T22:34:31.889Z,101897.72
2022-08-25T22:37:00.313Z,101892.47
2022-08-25T22:39:30.074Z,101896.72
2022-08-25T22:41:57.922Z,101896.69
2022-08-25T22:44:26.640Z,101891.69
2022-08-25T22:46:54.668Z,101899.56
2022-08-25T22:49:22.620Z,101897.66
2022-08-25T22:51:50.933Z,101892.16
2022-08-25T22:54:18.957Z,101898.03
2022-08-25T22:56:48.134Z,101904.97
2022-08-25T22:59:16.464Z,101895.97
2022-08-25T23:01:45.522Z,101901.06
2022-08-25T23:04:14.639Z,101905.28
2022-08-25T23:06:42.925Z,101903.66
2022-08-25T23:09:13.948Z,101901.06
2022-08-25T23:11:42.015Z,101904.88
2022-08-25T23:14:11.964Z,101905.94
2022-08-25T23:16:41.699Z,101897.66
2022-08-25T23:19:11.074Z,101897.66
2022-08-25T23:21:59.410Z,101886.44
2022-08-25T23:24:29.711Z,101880.28
2022-08-25T23:26:58.550Z,101875.09
2022-08-25T23:29:28.431Z,101876.19
2022-08-25T23:31:57.023Z,101871.56
2022-08-25T23:34:25.962Z,101877.00
2022-08-25T23:36:54.365Z,101884.75
2022-08-25T23:39:23.875Z,101881.03
2022-08-25T23:41:52.290Z,101881.03
2022-08-25T23:44:21.157Z,101882.22
2022-08-25T23:46:51.336Z,101882.25
2022-08-25T23:49:22.007Z,101881.69
2022-08-25T23:51:53.078Z,101871.72
2022-08-25T23:54:22.134Z,101870.91
2022-08-25T23:56:59.362Z,101865.53
2022-08-25T23:59:27.279Z,101870.06
